Time,TemperatureF,DewpointF,PressureIn,WindDirection,WindDirectionDegrees,WindSpeedMPH,WindSpeedGustMPH,Humidity,HourlyPrecipIn,Conditions,Clouds,dailyrainin,SoftwareType,DateUTC
2013-04-02 13:01:00,73.0,59.6,29.99,ESE,120,0.0,0.0,63,0.01,,,0.01,WeatherTracker,2013-04-02 18:01:00,
2013-04-02 13:05:00,73.0,59.6,29.99,ESE,121,2.0,6.0,63,0.01,,,0.01,WeatherTracker,2013-04-02 18:05:00,
2013-04-02 13:15:00,74.2,60.8,29.98,SE,126,0.0,6.0,63,0.01,,,0.01,WeatherTracker,2013-04-02 18:15:00,
2013-04-02 13:20:00,74.4,58.6,29.98,East,79,0.0,6.0,58,0.01,,,0.01,WeatherTracker,2013-04-02 18:20:00,
2013-04-02 13:25:00,74.4,59.1,29.98,ESE,121,0.0,6.0,59,0.01,,,0.01,WeatherTracker,2013-04-02 18:25:00,
2013-04-02 13:30:00,75.1,60.2,29.97,SE,140,3.0,6.0,60,0.01,,,0.01,WeatherTracker,2013-04-02 18:30:00,
2013-04-02 13:35:00,76.1,59.7,29.97,NNE,13,0.0,6.0,57,0.01,,,0.01,WeatherTracker,2013-04-02 18:35:00,
2013-04-02 13:45:00,75.8,59.0,29.96,NE,50,0.0,10.0,56,0.01,,,0.01,WeatherTracker,2013-04-02 18:45:00,
2013-04-02 13:50:00,75.8,59.0,29.96,SE,130,5.0,10.0,56,0.01,,,0.01,WeatherTracker,2013-04-02 18:50:00,
2013-04-02 14:00:00,74.9,59.1,29.96,ESE,112,0.0,11.0,58,0.01,,,0.01,WeatherTracker,2013-04-02 19:00:00,
2013-04-02 14:05:00,74.2,57.5,29.96,ESE,119,6.0,11.0,56,0.00,,,0.01,WeatherTracker,2013-04-02 19:05:00,
2013-04-02 14:10:00,73.9,57.2,29.96,ESE,116,3.0,9.0,56,0.00,,,0.01,WeatherTracker,2013-04-02 19:10:00,
2013-04-02 14:20:00,74.0,58.3,29.95,SE,128,2.0,5.0,58,0.00,,,0.01,WeatherTracker,2013-04-02 19:20:00,
2013-04-02 14:30:00,73.9,58.7,29.93,ESE,123,2.0,6.0,59,0.00,,,0.01,WeatherTracker,2013-04-02 19:30:00,
2013-04-02 14:35:00,74.0,58.7,29.93,ESE,122,3.0,6.0,59,0.00,,,0.01,WeatherTracker,2013-04-02 19:35:00,
2013-04-02 14:40:00,74.6,59.3,29.93,SSE,163,3.0,7.0,59,0.00,,,0.01,WeatherTracker,2013-04-02 19:40:00,
2013-04-02 14:45:00,74.7,59.9,29.93,SE,140,0.0,7.0,60,0.00,,,0.01,WeatherTracker,2013-04-02 19:45:00,
2013-04-02 14:50:00,74.9,59.6,29.93,SSE,157,4.0,9.0,59,0.00,,,0.01,WeatherTracker,2013-04-02 19:50:00,
2013-04-02 15:00:00,74.2,58.9,29.95,South,183,0.0,9.0,59,0.00,,,0.01,WeatherTracker,2013-04-02 20:00:00,
2013-04-02 15:10:00,73.7,58.9,29.95,ESE,120,0.0,5.0,60,0.00,,,0.01,WeatherTracker,2013-04-02 20:10:00,
2013-04-02 15:15:00,73.5,57.3,29.95,SSE,148,0.0,5.0,57,0.00,,,0.01,WeatherTracker,2013-04-02 20:15:00,
2013-04-02 15:20:00,73.5,57.8,29.95,SSW,194,0.0,6.0,58,0.00,,,0.01,WeatherTracker,2013-04-02 20:20:00,
2013-04-02 15:25:00,73.5,57.8,29.95,SSE,167,0.0,6.0,58,0.00,,,0.01,WeatherTracker,2013-04-02 20:25:00,
2013-04-02 15:30:00,73.5,57.8,29.95,South,171,2.0,2.0,58,0.00,,,0.01,WeatherTracker,2013-04-02 20:30:00,
2013-04-02 15:35:00,73.3,58.1,29.95,South,178,3.0,3.0,59,0.00,,,0.01,WeatherTracker,2013-04-02 20:35:00,
2013-04-02 15:45:00,73.2,58.0,29.95,South,175,0.0,6.0,59,0.00,,,0.01,WeatherTracker,2013-04-02 20:45:00,
2013-04-02 15:55:00,73.3,58.6,29.95,SSE,150,0.0,5.0,60,0.00,,,0.01,WeatherTracker,2013-04-02 20:55:00,
2013-04-02 16:05:00,73.7,58.5,29.94,SSE,150,0.0,0.0,59,0.00,,,0.01,WeatherTracker,2013-04-02 21:05:00,
2013-04-02 16:10:00,73.9,58.2,29.94,SSE,150,0.0,0.0,58,0.00,,,0.01,WeatherTracker,2013-04-02 21:10:00,
2013-04-02 16:20:00,73.9,57.7,29.93,ESE,122,0.0,1.0,57,0.00,,,0.01,WeatherTracker,2013-04-02 21:20:00,
2013-04-02 16:25:00,73.9,57.7,29.93,ENE,57,0.0,1.0,57,0.00,,,0.01,WeatherTracker,2013-04-02 21:25:00,
2013-04-02 16:35:00,73.9,58.2,29.93,SE,129,0.0,1.0,58,0.00,,,0.01,WeatherTracker,2013-04-02 21:35:00,
2013-04-02 16:40:00,73.7,58.5,29.93,SE,130,0.0,1.0,59,0.00,,,0.01,WeatherTracker,2013-04-02 21:40:00,
2013-04-02 16:45:00,73.5,58.7,29.93,SE,128,0.0,1.0,60,0.00,,,0.01,WeatherTracker,2013-04-02 21:45:00,
2013-04-02 16:55:00,73.5,59.2,29.93,SE,141,0.0,4.0,61,0.00,,,0.01,WeatherTracker,2013-04-02 21:55:00,
2013-04-02 17:05:00,73.7,59.4,29.93,SE,141,0.0,1.0,61,0.00,,,0.01,WeatherTracker,2013-04-02 22:05:00,